Meteoalarm - Portugal e Ilhas:

Avisos Meteorológicos para Portugal e Ilhas


Visite-nos no Facebook:

Visite-nos no Facebook


Madeira Webcams:


Grupo MeteoRAM Facebook:

Junte-se ao melhor e mais completo grupo de Meteorologia da Região Autónoma da Madeira



Situação meteorológica que não inspira cuidado.    Sem avisos

Weather Underground Histórico da Estação

Diário Resumo para Abril 25, 2019 Unidades:  Métrico    Inglês   Ambos
« Anterior Dia
Seguinte Dia »
Diário Semanal Mensal Anual Personalizado
  Atualmente: Alto: Baixo: Média:
Temperatura: -8.3 °C -17.8 °C -8.9 °C -8.3 °C
Ponto de orvalho: -13.2 °C -17.8 °C -13.8 °C -12.6 °C
Humidade: 56 % Humidity % 56 % 61 %
Velocidade do Vento: 5.6 km/h 0 km/h 0 km/h 7.9 km/h
Rajada de vento: 14 km/h 0 km/h - -
Vento:NNW - - WNW
Pressão Atmosférica: 34662.5 hPa 0 hPa 34476.3 hPa -
Precipitação: 0 mm      
Historical Graphs
 
 
Dados Tabulares para Abril 25, 2019
Hora Temperatura Ponto de orvalho Pressão Atmosférica Vento Velocidade do Vento Rajada de vento Humidade Taxa de Precipitação (Por hora)
-17.8 °C -17.8 °C 0 hPa Calm     Humidity % 0 mm
00:04 -8.1 °C -13 °C 34496.6 hPa West 5.6 km/h 11.6 km/h 56 % 0 mm
00:09 -8.1 °C -13 °C 34496.6 hPa West 9.8 km/h 14 km/h 56 % 0 mm
00:15 -7.9 °C -12.8 °C 34496.6 hPa WSW 9.8 km/h 17.9 km/h 56 % 0 mm
00:19 -7.8 °C -12.8 °C 34500 hPa West 4.2 km/h 19.6 km/h 56 % 0 mm
00:24 -7.8 °C -12.7 °C 34500 hPa WNW 4.2 km/h 19.6 km/h 56 % 0 mm
00:29 -7.9 °C -12.8 °C 34500 hPa NNW 5.6 km/h 15.6 km/h 56 % 0 mm
00:34 -7.9 °C -12.8 °C 34500 hPa NNW 5.6 km/h 14 km/h 56 % 0 mm
00:39 -8.1 °C -13 °C 34503.3 hPa NNW 5.6 km/h 14 km/h 56 % 0 mm
00:44 -8.2 °C -13.1 °C 34506.7 hPa Calm   14 km/h 56 % 0 mm
00:49 -8.2 °C -13.2 °C 34506.7 hPa NNW 4.2 km/h 11.6 km/h 56 % 0 mm
00:54 -8.3 °C -13.2 °C 34503.3 hPa NNW 1.8 km/h 14 km/h 56 % 0 mm
00:59 -8.2 °C -13.2 °C 34506.7 hPa NNW 4.2 km/h 14 km/h 56 % 0 mm
01:04 -8.3 °C -13.2 °C 34506.7 hPa NW 4.2 km/h 11.6 km/h 56 % 0 mm
01:09 -8.3 °C -13.2 °C 34506.7 hPa WNW 5.6 km/h 11.6 km/h 56 % 0 mm
01:14 -8.2 °C -13.2 °C 34506.7 hPa NW 4.2 km/h 11.6 km/h 56 % 0 mm
01:19 -8.2 °C -13.1 °C 34503.3 hPa NW 4.2 km/h 11.6 km/h 56 % 0 mm
01:24 -8.1 °C -13 °C 34500 hPa WNW 4.2 km/h 11.6 km/h 56 % 0 mm
01:29 -8.1 °C -13 °C 34493.2 hPa WNW 4.2 km/h 14 km/h 56 % 0 mm
01:34 -8.1 °C -13 °C 34496.6 hPa WNW 8 km/h 14 km/h 56 % 0 mm
01:39 -7.9 °C -12.9 °C 34500 hPa Calm   17.9 km/h 56 % 0 mm
01:44 -7.9 °C -12.9 °C 34500 hPa WNW 8 km/h 17.9 km/h 56 % 0 mm
01:49 -7.9 °C -12.8 °C 34500 hPa WNW 5.6 km/h 19.6 km/h 56 % 0 mm
01:54 -8 °C -12.9 °C 34500 hPa NW 5.6 km/h 19.6 km/h 56 % 0 mm
01:59 -8.1 °C -13 °C 34496.6 hPa Calm   14 km/h 56 % 0 mm
02:04 -8.2 °C -13.2 °C 34500 hPa NW 1.8 km/h 9.8 km/h 56 % 0 mm
02:09 -8.3 °C -13.2 °C 34500 hPa WNW 4.2 km/h 9.8 km/h 56 % 0 mm
02:14 -8.3 °C -13.2 °C 34500 hPa NW 1.8 km/h 9.8 km/h 56 % 0 mm
02:20 -8.4 °C -13.3 °C 34496.6 hPa North 4.2 km/h 9.8 km/h 56 % 0 mm
02:24 -8.5 °C -13.4 °C 34500 hPa North 4.2 km/h 9.8 km/h 56 % 0 mm
02:29 -8.6 °C -13.4 °C 34496.6 hPa North 4.2 km/h 11.6 km/h 56 % 0 mm
02:34 -8.7 °C -13.6 °C 34500 hPa North 5.6 km/h 11.6 km/h 56 % 0 mm
02:39 -8.7 °C -13.6 °C 34496.6 hPa North 5.6 km/h 11.6 km/h 56 % 0 mm
02:44 -8.8 °C -13.7 °C 34496.6 hPa NNW 5.6 km/h 11.6 km/h 56 % 0 mm
02:49 -8.8 °C -13.7 °C 34496.6 hPa NNW 8 km/h 11.6 km/h 56 % 0 mm
02:54 -8.8 °C -13.7 °C 34493.2 hPa NNW 8 km/h 19.6 km/h 56 % 0 mm
02:59 -8.8 °C -13.7 °C 34489.8 hPa NW 11.6 km/h 23.8 km/h 56 % 0 mm
03:04 -8.9 °C -13.8 °C 34486.4 hPa NNW 8 km/h 23.8 km/h 56 % 0 mm
03:09 -8.9 °C -13.8 °C 34489.8 hPa NNW 5.6 km/h 23.8 km/h 56 % 0 mm
03:14 -8.9 °C -13.8 °C 34483 hPa North 1.8 km/h 15.6 km/h 56 % 0 mm
03:19 -8.9 °C -13.8 °C 34486.4 hPa North 1.8 km/h 14 km/h 56 % 0 mm
03:24 -8.9 °C -13.6 °C 34486.4 hPa North 5.6 km/h 11.6 km/h 57 % 0 mm
03:29 -8.9 °C -13.6 °C 34483 hPa North 5.6 km/h 14 km/h 57 % 0 mm
03:34 -8.8 °C -13.6 °C 34486.4 hPa North 5.6 km/h 14 km/h 57 % 0 mm
03:39 -8.8 °C -13.5 °C 34483 hPa Calm   14 km/h 57 % 0 mm
03:44 -8.8 °C -13.5 °C 34483 hPa Calm   8 km/h 57 % 0 mm
03:50 -8.8 °C -13.7 °C 34486.4 hPa West 1.8 km/h 5.6 km/h 56 % 0 mm
03:54 -8.8 °C -13.7 °C 34479.6 hPa West 1.8 km/h 8 km/h 56 % 0 mm
03:59 -8.8 °C -13.7 °C 34476.3 hPa WNW 4.2 km/h 8 km/h 56 % 0 mm
04:04 -8.8 °C -13.7 °C 34479.6 hPa North 4.2 km/h 9.8 km/h 56 % 0 mm
04:09 -8.9 °C -13.6 °C 34476.3 hPa North 5.6 km/h 14 km/h 57 % 0 mm
04:14 -8.9 °C -13.7 °C 34479.6 hPa North 4.2 km/h 14 km/h 57 % 0 mm
04:19 -8.9 °C -13.7 °C 34479.6 hPa NNW 5.6 km/h 11.6 km/h 57 % 0 mm
04:25 -8.9 °C -13.5 °C 34479.6 hPa NNW 4.2 km/h 11.6 km/h 58 % 0 mm
04:29 -8.9 °C -13.5 °C 34479.6 hPa NW 4.2 km/h 9.8 km/h 58 % 0 mm
04:34 -8.9 °C -13.5 °C 34479.6 hPa West 8 km/h 15.6 km/h 58 % 0 mm
04:39 -8.9 °C -13.5 °C 34479.6 hPa Calm   15.6 km/h 58 % 0 mm
04:44 -8.8 °C -13.6 °C 34479.6 hPa NNW 4.2 km/h 14 km/h 57 % 0 mm
04:49 -8.8 °C -13.5 °C 34479.6 hPa Calm   14 km/h 57 % 0 mm
04:54 -8.8 °C -13.5 °C 34483 hPa NNW 1.8 km/h 9.8 km/h 57 % 0 mm
04:59 -8.8 °C -13.5 °C 34479.6 hPa WNW 4.2 km/h 5.6 km/h 57 % 0 mm
05:04 -8.7 °C -13.4 °C 34483 hPa Calm   5.6 km/h 57 % 0 mm
05:09 -8.8 °C -13.5 °C 34483 hPa Calm   5.6 km/h 57 % 0 mm
05:14 -8.7 °C -13.4 °C 34479.6 hPa Calm   4.2 km/h 57 % 0 mm
05:19 -8.7 °C -13.4 °C 34483 hPa Calm   9.8 km/h 57 % 0 mm
05:24 -8.6 °C -13.2 °C 34479.6 hPa NNE 4.2 km/h 11.6 km/h 58 % 0 mm
05:29 -8.6 °C -13.2 °C 34486.4 hPa Calm   11.6 km/h 58 % 0 mm
05:34 -8.4 °C -13.1 °C 34483 hPa Calm   11.6 km/h 58 % 0 mm
05:39 -8.4 °C -13.1 °C 34479.6 hPa North 4.2 km/h 9.8 km/h 58 % 0 mm
05:44 -8.4 °C -12.9 °C 34479.6 hPa North 5.6 km/h 9.8 km/h 59 % 0 mm
05:49 -8.4 °C -12.7 °C 34483 hPa North 4.2 km/h 11.6 km/h 60 % 0 mm
05:54 -8.4 °C -12.7 °C 34483 hPa North 4.2 km/h 11.6 km/h 60 % 0 mm
05:59 -8.3 °C -12.3 °C 34483 hPa North 9.8 km/h 23.8 km/h 63 % 0 mm
06:04 -8.4 °C -12.2 °C 34486.4 hPa North 9.8 km/h 23.8 km/h 64 % 0 mm
06:09 -8.4 °C -12.1 °C 34489.8 hPa NNW 5.6 km/h 23.8 km/h 65 % 0 mm
06:14 -8.4 °C -12 °C 34486.4 hPa NNW 4.2 km/h 17.9 km/h 66 % 0 mm
06:19 -8.5 °C -11.9 °C 34486.4 hPa NNW 4.2 km/h 9.8 km/h 67 % 0 mm
06:24 -8.6 °C -12 °C 34486.4 hPa NNW 4.2 km/h 11.6 km/h 67 % 0 mm
06:29 -8.6 °C -12.1 °C 34486.4 hPa WNW 1.8 km/h 15.6 km/h 67 % 0 mm
06:34 -8.6 °C -12.1 °C 34483 hPa WNW 1.8 km/h 15.6 km/h 67 % 0 mm
06:39 -8.7 °C -11.9 °C 34486.4 hPa NW 1.8 km/h 9.8 km/h 68 % 0 mm
06:44 -8.7 °C -11.9 °C 34489.8 hPa Calm   9.8 km/h 68 % 0 mm
06:49 -8.7 °C -11.9 °C 34489.8 hPa WNW 1.8 km/h 9.8 km/h 68 % 0 mm
06:54 -8.7 °C -11.9 °C 34486.4 hPa WNW 1.8 km/h 9.8 km/h 68 % 0 mm
06:59 -8.7 °C -11.9 °C 34493.2 hPa NW 4.2 km/h 9.8 km/h 68 % 0 mm
07:04 -8.7 °C -11.9 °C 34496.6 hPa NNW 4.2 km/h 11.6 km/h 68 % 0 mm
07:10 -8.6 °C -11.9 °C 34493.2 hPa NNW 5.6 km/h 11.6 km/h 68 % 0 mm
07:14 -8.6 °C -11.8 °C 34496.6 hPa NNW 4.2 km/h 9.8 km/h 69 % 0 mm
07:19 -8.6 °C -11.8 °C 34500 hPa NNW 5.6 km/h 14 km/h 69 % 0 mm
07:24 -8.7 °C -11.8 °C 34500 hPa NW 4.2 km/h 14 km/h 69 % 0 mm
07:30 -8.7 °C -11.8 °C 34500 hPa NW 4.2 km/h 14 km/h 69 % 0 mm
07:34 -8.7 °C -11.8 °C 34503.3 hPa WNW 1.8 km/h 14 km/h 69 % 0 mm
07:39 -8.7 °C -11.9 °C 34506.7 hPa WNW 4.2 km/h 15.6 km/h 69 % 0 mm
07:44 -8.8 °C -11.9 °C 34510.1 hPa NW 4.2 km/h 15.6 km/h 69 % 0 mm
07:50 -8.8 °C -11.9 °C 34513.5 hPa NW 4.2 km/h 14 km/h 69 % 0 mm
07:54 -8.8 °C -12 °C 34506.7 hPa NW 4.2 km/h 14 km/h 69 % 0 mm
07:59 -8.8 °C -12.1 °C 34510.1 hPa NW 8 km/h 14 km/h 68 % 0 mm
08:04 -8.7 °C -12 °C 34513.5 hPa North 8 km/h 11.6 km/h 68 % 0 mm
08:09 -8.7 °C -12 °C 34516.9 hPa North 4.2 km/h 14 km/h 68 % 0 mm
08:14 -8.7 °C -12.1 °C 34523.7 hPa NNW 5.6 km/h 17.9 km/h 67 % 0 mm
08:19 -8.6 °C -12.1 °C 34520.3 hPa NW 8 km/h 17.9 km/h 66 % 0 mm
08:24 -8.5 °C -12.2 °C 34530.4 hPa NW 5.6 km/h 17.9 km/h 65 % 0 mm
08:29 -8.3 °C -12 °C 34530.4 hPa NNW 15.6 km/h 29.5 km/h 65 % 0 mm
08:34 -8.2 °C -11.8 °C 34533.8 hPa North 11.6 km/h 29.5 km/h 66 % 0 mm
08:39 -8.2 °C -11.8 °C 34537.2 hPa North 5.6 km/h 25.4 km/h 66 % 0 mm
08:44 -8.2 °C -11.7 °C 34533.8 hPa NNW 4.2 km/h 17.9 km/h 67 % 0 mm
08:49 -8.3 °C -11.6 °C 34540.6 hPa NNW 5.6 km/h 19.6 km/h 68 % 0 mm
08:54 -8.3 °C -11.4 °C 34540.6 hPa NNW 4.2 km/h 23.8 km/h 69 % 0 mm
08:59 -8.4 °C -11.6 °C 34544 hPa NNW 4.2 km/h 23.8 km/h 69 % 0 mm
09:04 -8.4 °C -11.5 °C 34544 hPa North 5.6 km/h 15.6 km/h 70 % 0 mm
09:09 -8.6 °C -11.5 °C 34547.4 hPa NNE 11.6 km/h 19.6 km/h 71 % 0 mm
09:14 -8.6 °C -11.3 °C 34547.4 hPa NNE 15.6 km/h 31.4 km/h 72 % 0 mm
09:19 -8.6 °C -11.3 °C 34554.1 hPa NE 11.6 km/h 31.4 km/h 73 % 0 mm
09:24 -8.6 °C -11.2 °C 34557.5 hPa NNE 23.8 km/h 39.4 km/h 74 % 0 mm
09:29 -8.7 °C -11.3 °C 34557.5 hPa NNE 15.6 km/h 41.2 km/h 74 % 0 mm
09:34 -8.8 °C -11.2 °C 34560.9 hPa NNE 8 km/h 41.2 km/h 75 % 0 mm
09:39 -8.8 °C -11.2 °C 34564.3 hPa NNE 8 km/h 37.5 km/h 75 % 0 mm
09:44 -8.8 °C -11.2 °C 34567.7 hPa North 1.8 km/h 37.5 km/h 75 % 0 mm
09:49 -8.8 °C -11.2 °C 34564.3 hPa North 8 km/h 27.7 km/h 75 % 0 mm
09:54 -8.8 °C -11.1 °C 34571.1 hPa NNW 8 km/h 21.6 km/h 76 % 0 mm
09:59 -8.8 °C -11.2 °C 34574.4 hPa NNW 14 km/h 23.8 km/h 76 % 0 mm
10:04 -8.9 °C -11.2 °C 34571.1 hPa North 8 km/h 23.8 km/h 76 % 0 mm
10:09 -8.8 °C -11.2 °C 34574.4 hPa North 11.6 km/h 23.8 km/h 76 % 0 mm
10:14 -8.9 °C -11.2 °C 34577.8 hPa NNE 14 km/h 25.4 km/h 76 % 0 mm
10:19 -8.8 °C -11.2 °C 34581.2 hPa NNE 5.6 km/h 25.4 km/h 76 % 0 mm
10:24 -8.8 °C -11.2 °C 34581.2 hPa NNE 11.6 km/h 25.4 km/h 76 % 0 mm
10:29 -8.8 °C -11.2 °C 34581.2 hPa NNE 5.6 km/h 15.6 km/h 76 % 0 mm
10:35 -8.8 °C -11 °C 34584.6 hPa North 1.8 km/h 15.6 km/h 77 % 0 mm
10:40 -8.8 °C -11 °C 34584.6 hPa NNW 15.6 km/h 25.4 km/h 77 % 0 mm
10:44 -8.8 °C -11.1 °C 34594.8 hPa NNW 9.8 km/h 25.4 km/h 77 % 0 mm
10:49 -8.8 °C -11.1 °C 34591.4 hPa NNW 4.2 km/h 25.4 km/h 77 % 0 mm
10:55 -8.8 °C -11.1 °C 34598.1 hPa NNW 5.6 km/h 19.6 km/h 77 % 0 mm
10:59 -8.8 °C -11.1 °C 34594.8 hPa NNE 5.6 km/h 19.6 km/h 77 % 0 mm
11:04 -8.8 °C -10.9 °C 34594.8 hPa North 11.6 km/h 17.9 km/h 78 % 0 mm
11:09 -8.7 °C -10.8 °C 34591.4 hPa NNW 11.6 km/h 21.6 km/h 78 % 0 mm
11:14 -8.6 °C -10.6 °C 34591.4 hPa North 17.9 km/h 29.5 km/h 79 % 0 mm
11:19 -8.6 °C -10.9 °C 34591.4 hPa North 21.6 km/h 35.2 km/h 77 % 0 mm
11:24 -8.5 °C -10.7 °C 34591.4 hPa North 15.6 km/h 35.2 km/h 78 % 0 mm
11:29 -8.4 °C -10.9 °C 34591.4 hPa North 19.6 km/h 37.5 km/h 75 % 0 mm
11:35 -8.2 °C -10.7 °C 34594.8 hPa North 11.6 km/h 37.5 km/h 75 % 0 mm
11:39 -7.9 °C -10.6 °C 34594.8 hPa NNW 1.8 km/h 35.2 km/h 74 % 0 mm
11:44 -7.9 °C -10.7 °C 34591.4 hPa NW 11.6 km/h 31.4 km/h 72 % 0 mm
11:49 -8 °C -11.6 °C 34588 hPa WNW 11.6 km/h 35.2 km/h 66 % 0 mm
11:54 -8.1 °C -11.9 °C 34594.8 hPa NW 11.6 km/h 35.2 km/h 64 % 0 mm
11:59 -8 °C -11.8 °C 34594.8 hPa NW 9.8 km/h 45.1 km/h 64 % 0 mm
12:04 -7.9 °C -11.7 °C 34598.1 hPa NW 9.8 km/h 45.1 km/h 64 % 0 mm
12:09 -7.9 °C -12 °C 34598.1 hPa NW 14 km/h 31.4 km/h 62 % 0 mm
12:14 -7.8 °C -11.8 °C 34601.5 hPa NNW 8 km/h 35.2 km/h 63 % 0 mm
12:19 -7.7 °C -12 °C 34601.5 hPa NNW 15.6 km/h 35.2 km/h 61 % 0 mm
12:24 -7.7 °C -12.1 °C 34604.9 hPa North 21.6 km/h 31.4 km/h 60 % 0 mm
12:30 -7.7 °C -12.1 °C 34608.3 hPa NNW 14 km/h 35.2 km/h 60 % 0 mm
12:34 -7.8 °C -12.2 °C 34608.3 hPa NW 9.8 km/h 35.2 km/h 60 % 0 mm
12:39 -7.8 °C -12.3 °C 34608.3 hPa NW 17.9 km/h 35.2 km/h 59 % 0 mm
12:44 -7.8 °C -12.4 °C 34608.3 hPa NW 11.6 km/h 27.7 km/h 58 % 0 mm
12:49 -7.9 °C -12.7 °C 34608.3 hPa NNW 5.6 km/h 37.5 km/h 57 % 0 mm
12:54 -7.7 °C -12.7 °C 34608.3 hPa NNW 11.6 km/h 37.5 km/h 56 % 0 mm
12:59 -7.6 °C -12.6 °C 34604.9 hPa NNW 11.6 km/h 31.4 km/h 56 % 0 mm
13:04 -7.6 °C -12.5 °C 34604.9 hPa NNW 19.6 km/h 33.6 km/h 56 % 0 mm
13:09 -7.6 °C -12.5 °C 34611.7 hPa NNW 14 km/h 33.6 km/h 56 % 0 mm
13:14 -7.6 °C -12.6 °C 34608.3 hPa NNW 14 km/h 35.2 km/h 56 % 0 mm
13:19 -7.6 °C -12.6 °C 34611.7 hPa NNW 11.6 km/h 35.2 km/h 56 % 0 mm
13:24 -7.6 °C -12.6 °C 34615.1 hPa NNW 14 km/h 29.5 km/h 56 % 0 mm
13:29 -7.6 °C -12.5 °C 34611.7 hPa NNW 14 km/h 29.5 km/h 56 % 0 mm
13:34 -7.6 °C -12.6 °C 34611.7 hPa NNW 29.5 km/h 41.2 km/h 56 % 0 mm
13:39 -7.6 °C -12.6 °C 34615.1 hPa NNW 19.6 km/h 41.2 km/h 56 % 0 mm
13:44 -7.7 °C -12.6 °C 34611.7 hPa NNW 15.6 km/h 41.2 km/h 56 % 0 mm
13:49 -7.7 °C -12.7 °C 34615.1 hPa NW 5.6 km/h 31.4 km/h 56 % 0 mm
13:54 -7.7 °C -12.7 °C 34615.1 hPa NNW 9.8 km/h 31.4 km/h 56 % 0 mm
13:59 -7.8 °C -12.7 °C 34618.5 hPa NNW 14 km/h 37.5 km/h 56 % 0 mm
14:04 -7.8 °C -12.6 °C 34615.1 hPa NNW 11.6 km/h 37.5 km/h 57 % 0 mm
14:09 -7.9 °C -12.7 °C 34618.5 hPa NNW 14 km/h 27.7 km/h 57 % 0 mm
14:14 -7.9 °C -12.7 °C 34618.5 hPa NNW 11.6 km/h 31.4 km/h 57 % 0 mm
14:19 -7.9 °C -12.7 °C 34618.5 hPa NNW 9.8 km/h 31.4 km/h 57 % 0 mm
14:24 -7.8 °C -12.6 °C 34615.1 hPa NNW 11.6 km/h 31.4 km/h 57 % 0 mm
14:29 -7.8 °C -12.7 °C 34618.5 hPa NNW 9.8 km/h 27.7 km/h 56 % 0 mm
14:34 -7.7 °C -12.6 °C 34618.5 hPa NW 5.6 km/h 27.7 km/h 56 % 0 mm
14:39 -7.6 °C -12.5 °C 34618.5 hPa NW 17.9 km/h 25.4 km/h 56 % 0 mm
14:44 -7.6 °C -12.6 °C 34618.5 hPa NNW 23.8 km/h 37.5 km/h 56 % 0 mm
14:49 -7.6 °C -12.6 °C 34621.9 hPa NW 14 km/h 37.5 km/h 56 % 0 mm
14:54 -7.6 °C -12.5 °C 34621.9 hPa NW 9.8 km/h 37.5 km/h 56 % 0 mm
14:59 -7.6 °C -12.5 °C 34625.2 hPa NNW 11.6 km/h 31.4 km/h 56 % 0 mm
15:04 -7.6 °C -12.5 °C 34625.2 hPa NNW 8 km/h 25.4 km/h 56 % 0 mm
15:09 -7.7 °C -12.6 °C 34628.6 hPa NNW 9.8 km/h 33.6 km/h 56 % 0 mm
15:14 -7.8 °C -12.7 °C 34628.6 hPa North 15.6 km/h 33.6 km/h 56 % 0 mm
15:20 -7.8 °C -12.7 °C 34632 hPa North 9.8 km/h 25.4 km/h 56 % 0 mm
15:24 -7.9 °C -12.8 °C 34628.6 hPa NNW 15.6 km/h 31.4 km/h 56 % 0 mm
15:29 -7.8 °C -12.8 °C 34628.6 hPa NNW 9.8 km/h 31.4 km/h 56 % 0 mm
15:34 -7.8 °C -12.8 °C 34628.6 hPa NNW 14 km/h 31.4 km/h 56 % 0 mm
15:39 -7.9 °C -12.7 °C 34632 hPa NNW 9.8 km/h 23.8 km/h 57 % 0 mm
15:44 -7.9 °C -12.6 °C 34632 hPa WNW 5.6 km/h 23.8 km/h 58 % 0 mm
15:49 -7.9 °C -12.6 °C 34628.6 hPa WNW 5.6 km/h 23.8 km/h 58 % 0 mm
15:54 -8 °C -12.3 °C 34632 hPa NNW 8 km/h 19.6 km/h 60 % 0 mm
15:59 -8.1 °C -12.6 °C 34628.6 hPa North 8 km/h 27.7 km/h 59 % 0 mm
16:04 -8.1 °C -12.4 °C 34632 hPa North 8 km/h 27.7 km/h 60 % 0 mm
16:09 -8.2 °C -12.6 °C 34632 hPa NNW 14 km/h 21.6 km/h 60 % 0 mm
16:14 -8.2 °C -12.7 °C 34632 hPa NNW 5.6 km/h 23.8 km/h 59 % 0 mm
16:19 -8.2 °C -12.6 °C 34635.4 hPa NNW 15.6 km/h 25.4 km/h 60 % 0 mm
16:24 -8.2 °C -12.6 °C 34635.4 hPa NNW 11.6 km/h 25.4 km/h 60 % 0 mm
16:29 -8.3 °C -12.6 °C 34635.4 hPa NNW 5.6 km/h 25.4 km/h 60 % 0 mm
16:34 -8.2 °C -12.4 °C 34632 hPa NNW 9.8 km/h 21.6 km/h 61 % 0 mm
16:39 -8.3 °C -12.6 °C 34628.6 hPa NNW 17.9 km/h 27.7 km/h 60 % 0 mm
16:44 -8.3 °C -12.6 °C 34628.6 hPa NNW 5.6 km/h 27.7 km/h 60 % 0 mm
16:49 -8.3 °C -12.6 °C 34632 hPa NNW 5.6 km/h 27.7 km/h 60 % 0 mm
16:54 -8.3 °C -12.6 °C 34628.6 hPa NNW 11.6 km/h 19.6 km/h 61 % 0 mm
16:59 -8.3 °C -12.6 °C 34628.6 hPa NW 5.6 km/h 23.8 km/h 60 % 0 mm
17:04 -8.3 °C -12.7 °C 34628.6 hPa NNW 8 km/h 23.8 km/h 60 % 0 mm
17:09 -8.3 °C -12.7 °C 34628.6 hPa NNW 11.6 km/h 21.6 km/h 59 % 0 mm
17:14 -8.3 °C -13.1 °C 34628.6 hPa NW 11.6 km/h 27.7 km/h 57 % 0 mm
17:19 -8.3 °C -13.2 °C 34632 hPa WNW 11.6 km/h 27.7 km/h 56 % 0 mm
17:25 -8.3 °C -13.2 °C 34632 hPa NW 9.8 km/h 29.5 km/h 56 % 0 mm
17:29 -8.2 °C -13.1 °C 34632 hPa NNW 9.8 km/h 29.5 km/h 56 % 0 mm
17:34 -8.2 °C -13.1 °C 34632 hPa NNW 5.6 km/h 27.7 km/h 56 % 0 mm
17:39 -8.1 °C -13 °C 34638.8 hPa NW 11.6 km/h 27.7 km/h 56 % 0 mm
17:44 -8.1 °C -13 °C 34635.4 hPa NNW 4.2 km/h 21.6 km/h 56 % 0 mm
17:49 -8.1 °C -13 °C 34635.4 hPa NNW 8 km/h 21.6 km/h 56 % 0 mm
17:54 -8.1 °C -13 °C 34642.2 hPa NW 11.6 km/h 23.8 km/h 56 % 0 mm
17:59 -8.1 °C -13 °C 34638.8 hPa NNW 9.8 km/h 23.8 km/h 56 % 0 mm
18:04 -8.1 °C -13 °C 34638.8 hPa NNW 9.8 km/h 21.6 km/h 56 % 0 mm
18:09 -8.1 °C -13 °C 34638.8 hPa NW 9.8 km/h 23.8 km/h 56 % 0 mm
18:14 -8.1 °C -13 °C 34642.2 hPa NNW 15.6 km/h 27.7 km/h 56 % 0 mm
18:19 -8.1 °C -13 °C 34642.2 hPa NNW 8 km/h 27.7 km/h 56 % 0 mm
18:24 -8.1 °C -13 °C 34645.6 hPa NW 11.6 km/h 25.4 km/h 56 % 0 mm
18:29 -8.1 °C -13 °C 34642.2 hPa NNW 11.6 km/h 25.4 km/h 56 % 0 mm
18:34 -8.1 °C -13 °C 34645.6 hPa NNW 11.6 km/h 25.4 km/h 56 % 0 mm
18:39 -8.1 °C -13 °C 34645.6 hPa North 11.6 km/h 27.7 km/h 56 % 0 mm
18:44 -8.1 °C -13 °C 34645.6 hPa North 9.8 km/h 29.5 km/h 56 % 0 mm
18:49 -8.1 °C -13 °C 34648.9 hPa NNW 14 km/h 29.5 km/h 56 % 0 mm
18:54 -8.1 °C -13 °C 34645.6 hPa NW 4.2 km/h 27.7 km/h 56 % 0 mm
18:59 -8.1 °C -13 °C 34648.9 hPa NW 9.8 km/h 23.8 km/h 56 % 0 mm
19:04 -8.1 °C -13 °C 34645.6 hPa NNW 9.8 km/h 23.8 km/h 56 % 0 mm
19:09 -8.1 °C -13 °C 34648.9 hPa North 4.2 km/h 25.4 km/h 56 % 0 mm
19:14 -8.1 °C -13 °C 34648.9 hPa North 8 km/h 27.7 km/h 56 % 0 mm
19:19 -8.1 °C -13 °C 34648.9 hPa NNW 9.8 km/h 27.7 km/h 56 % 0 mm
19:24 -8.1 °C -13 °C 34648.9 hPa NNW 8 km/h 19.6 km/h 56 % 0 mm
19:29 -8.1 °C -13 °C 34648.9 hPa Calm   17.9 km/h 56 % 0 mm
19:34 -8.1 °C -13 °C 34648.9 hPa NNW 4.2 km/h 15.6 km/h 56 % 0 mm
19:39 -8.1 °C -13 °C 34655.7 hPa NNW 9.8 km/h 17.9 km/h 56 % 0 mm
19:44 -8.1 °C -13 °C 34655.7 hPa NW 8 km/h 17.9 km/h 56 % 0 mm
19:49 -8.2 °C -13.1 °C 34655.7 hPa NNW 5.6 km/h 15.6 km/h 56 % 0 mm
19:54 -8.2 °C -13.1 °C 34655.7 hPa North 4.2 km/h 17.9 km/h 56 % 0 mm
19:59 -8.2 °C -13.1 °C 34652.3 hPa NW 8 km/h 23.8 km/h 56 % 0 mm
20:04 -8.2 °C -13.2 °C 34652.3 hPa WNW 8 km/h 23.8 km/h 56 % 0 mm
20:09 -8.2 °C -13.2 °C 34648.9 hPa NW 4.2 km/h 21.6 km/h 56 % 0 mm
20:14 -8.2 °C -13.2 °C 34648.9 hPa North 4.2 km/h 15.6 km/h 56 % 0 mm
20:19 -8.2 °C -13.2 °C 34648.9 hPa North 14 km/h 21.6 km/h 56 % 0 mm
20:24 -8.2 °C -13.2 °C 34655.7 hPa NNW 1.8 km/h 21.6 km/h 56 % 0 mm
20:29 -8.3 °C -13.2 °C 34659.1 hPa North 8 km/h 23.8 km/h 56 % 0 mm
20:34 -8.3 °C -13.2 °C 34655.7 hPa NNE 4.2 km/h 23.8 km/h 56 % 0 mm
20:39 -8.3 °C -13.2 °C 34655.7 hPa North 4.2 km/h 17.9 km/h 56 % 0 mm
20:44 -8.3 °C -13.2 °C 34659.1 hPa NNW 8 km/h 15.6 km/h 56 % 0 mm
20:49 -8.3 °C -13.2 °C 34662.5 hPa NNW 5.6 km/h 14 km/h 56 % 0 mm
MeteoMachico
Cumprimentos de Weather Underground - 3.75 mb

Script original por  Jim McMurry - jmcmurry@mwt.net Adaptado para o modelo por  Wim van der Kuil - Leuven-Template.eu

Equipamento que usamos:

Estação Meteorológica
Weatherwise ws-1080

IPCAM
Dericam H502W

Servidor
Digital Ocean

Weatherwise ws-1080

Dericam H502W

Digital Ocean